createdAt,value
2022-10-07T00:03:46.904Z,101741.59
2022-10-07T00:08:53.167Z,101738.70
2022-10-07T00:13:59.682Z,101734.48
2022-10-07T00:19:05.602Z,101732.95
2022-10-07T00:24:11.143Z,101733.02
2022-10-07T00:29:14.426Z,101734.84
2022-10-07T00:34:17.635Z,101731.63
2022-10-07T00:39:20.843Z,101729.30
2022-10-07T00:44:45.513Z,101726.70
2022-10-07T00:49:51.277Z,101723.19
2022-10-07T00:54:57.936Z,101727.59
2022-10-07T01:00:02.886Z,101726.06
2022-10-07T01:05:09.931Z,101723.23
2022-10-07T01:10:19.147Z,101722.81
2022-10-07T01:15:46.405Z,101723.33
2022-10-07T01:20:54.521Z,101719.02
2022-10-07T01:26:32.004Z,101718.02
2022-10-07T01:31:52.225Z,101724.19
2022-10-07T01:37:00.832Z,101723.34
2022-10-07T01:42:05.429Z,101714.39
2022-10-07T01:47:08.564Z,101718.36
2022-10-07T01:52:12.011Z,101714.55
2022-10-07T01:57:40.562Z,101702.18
2022-10-07T02:02:52.712Z,101698.45
2022-10-07T02:08:05.087Z,101701.24
2022-10-07T02:13:18.450Z,101702.49
2022-10-07T02:18:21.682Z,101700.54
2022-10-07T02:23:26.022Z,101695.09
2022-10-07T02:28:30.767Z,101699.42
2022-10-07T02:33:36.213Z,101702.51
2022-10-07T02:38:39.958Z,101704.22
2022-10-07T02:43:53.758Z,101703.56
2022-10-07T02:49:08.822Z,101701.35
2022-10-07T02:54:13.811Z,101699.70
2022-10-07T02:59:19.316Z,101701.38
2022-10-07T03:04:23.699Z,101698.21
2022-10-07T03:09:28.405Z,101703.66
2022-10-07T03:14:31.775Z,101704.20
2022-10-07T03:19:35.211Z,101704.95
2022-10-07T03:24:38.924Z,101702.83
2022-10-07T03:29:42.371Z,101701.84
2022-10-07T03:34:45.606Z,101704.02
2022-10-07T03:39:49.392Z,101702.52
2022-10-07T03:44:53.250Z,101700.73
2022-10-07T03:49:58.292Z,101695.27
2022-10-07T03:55:01.487Z,101682.42
2022-10-07T04:00:05.105Z,101685.77
2022-10-07T04:05:09.201Z,101684.05
2022-10-07T04:10:14.729Z,101679.48
2022-10-07T04:15:18.983Z,101677.11
2022-10-07T04:20:22.140Z,101673.09
2022-10-07T04:25:34.164Z,101670.81
2022-10-07T04:30:43.957Z,101672.32
2022-10-07T04:35:49.345Z,101675.06
2022-10-07T04:40:52.465Z,101670.80
2022-10-07T04:46:06.426Z,101675.83
2022-10-07T04:51:10.878Z,101680.79
2022-10-07T04:56:14.750Z,101684.21
2022-10-07T05:01:17.999Z,101684.02
2022-10-07T05:06:21.216Z,101682.55
2022-10-07T05:11:26.155Z,101678.95
2022-10-07T05:16:29.755Z,101678.02
2022-10-07T05:21:33.929Z,101673.05
2022-10-07T05:26:37.111Z,101668.81
2022-10-07T05:31:40.452Z,101667.43
2022-10-07T05:36:45.744Z,101666.57
2022-10-07T05:41:49.157Z,101671.16
2022-10-07T05:46:52.439Z,101669.55
2022-10-07T05:51:55.548Z,101666.27
2022-10-07T05:56:58.854Z,101665.27
2022-10-07T06:02:02.282Z,101669.57
2022-10-07T06:07:06.702Z,101663.50
2022-10-07T06:12:29.377Z,101668.00
2022-10-07T06:17:32.548Z,101672.20
2022-10-07T06:22:35.789Z,101678.42
2022-10-07T06:27:40.067Z,101679.35
2022-10-07T06:32:43.166Z,101677.88
2022-10-07T06:37:46.817Z,101686.80
2022-10-07T06:42:50.507Z,101680.70
2022-10-07T06:47:53.716Z,101681.20
2022-10-07T06:52:56.878Z,101682.05
2022-10-07T06:58:00.273Z,101683.84
2022-10-07T07:03:03.936Z,-1.00
2022-10-07T07:08:09.078Z,-1.00
2022-10-07T07:13:12.879Z,-1.00
2022-10-07T07:18:16.014Z,-1.00
2022-10-07T07:23:20.400Z,-1.00
2022-10-07T07:28:23.608Z,-1.00
2022-10-07T07:33:27.662Z,-1.00
2022-10-07T07:38:31.363Z,-1.00
2022-10-07T07:43:34.650Z,-1.00
2022-10-07T07:48:38.667Z,-1.00
2022-10-07T07:53:41.897Z,-1.00
2022-10-07T07:58:45.666Z,-1.00
2022-10-07T08:03:49.547Z,-1.00
2022-10-07T08:08:57.671Z,-1.00
2022-10-07T08:14:03.503Z,-1.00
2022-10-07T08:19:06.705Z,-1.00
2022-10-07T08:24:15.413Z,-1.00
2022-10-07T08:29:24.249Z,-1.00
2022-10-07T08:34:27.698Z,-1.00
2022-10-07T08:39:31.483Z,-1.00
2022-10-07T08:44:40.287Z,-1.00
2022-10-07T08:50:07.837Z,-1.00
2022-10-07T08:55:46.247Z,-1.00
2022-10-07T09:01:15.776Z,-1.00
2022-10-07T09:07:01.580Z,-1.00
2022-10-07T09:12:51.045Z,101640.37
2022-10-07T09:18:02.327Z,101631.77
2022-10-07T09:23:07.743Z,101631.35
2022-10-07T09:28:17.366Z,101625.27
2022-10-07T09:33:24.250Z,101621.38
2022-10-07T09:38:48.833Z,101613.92
2022-10-07T09:44:15.501Z,101606.60
2022-10-07T09:49:49.096Z,101604.72
2022-10-07T09:54:54.807Z,101601.30
2022-10-07T10:00:13.276Z,101596.00
2022-10-07T10:05:29.333Z,101591.13
2022-10-07T10:10:36.748Z,101588.43
2022-10-07T10:15:42.195Z,101586.80
2022-10-07T10:20:46.608Z,101583.99
2022-10-07T10:26:33.604Z,101583.77
2022-10-07T10:32:05.892Z,101574.85
2022-10-07T10:37:16.538Z,101565.84
2022-10-07T10:42:41.094Z,101561.14
2022-10-07T10:47:53.465Z,101548.13
2022-10-07T10:53:21.744Z,101542.72
2022-10-07T10:58:58.444Z,101534.51
2022-10-07T11:04:12.566Z,101526.42
2022-10-07T11:09:44.405Z,101517.86
2022-10-07T11:14:57.619Z,101505.34
2022-10-07T11:20:18.033Z,101500.73
2022-10-07T11:25:29.579Z,101486.38
2022-10-07T11:30:43.358Z,101481.30
2022-10-07T11:35:55.779Z,101474.13
2022-10-07T11:41:09.204Z,101464.28
2022-10-07T11:46:36.516Z,101449.81
2022-10-07T11:51:54.808Z,101440.90
2022-10-07T11:57:01.088Z,101435.80
2022-10-07T12:02:05.211Z,101427.52
2022-10-07T12:07:33.502Z,101418.73
2022-10-07T12:12:46.953Z,101408.52
2022-10-07T12:18:22.221Z,101399.73
2022-10-07T12:23:29.940Z,101391.63
2022-10-07T12:28:38.129Z,101384.27
2022-10-07T12:33:44.236Z,101375.73
2022-10-07T12:39:08.283Z,101364.91
2022-10-07T12:44:23.263Z,101359.50
2022-10-07T12:49:37.045Z,101348.80
2022-10-07T12:54:54.556Z,101342.30
2022-10-07T13:00:12.710Z,101327.02
2022-10-07T13:05:53.780Z,101320.33
2022-10-07T13:11:16.186Z,101313.63
2022-10-07T13:16:43.060Z,101306.94
2022-10-07T13:22:10.391Z,101301.48
2022-10-07T13:27:42.554Z,101297.08
2022-10-07T13:32:46.687Z,101290.55
2022-10-07T13:37:49.968Z,101285.75
2022-10-07T13:42:59.390Z,101276.96
2022-10-07T13:48:02.587Z,101267.10
2022-10-07T13:53:06.003Z,101259.89
2022-10-07T13:58:10.165Z,101249.84
2022-10-07T14:03:15.408Z,101241.89
2022-10-07T14:08:22.717Z,101230.46
2022-10-07T14:13:29.320Z,101223.98
2022-10-07T14:18:32.531Z,101217.27
2022-10-07T14:23:38.575Z,101203.53
2022-10-07T14:28:43.256Z,101192.07
2022-10-07T14:34:24.090Z,101186.13
2022-10-07T14:39:48.075Z,101179.48
2022-10-07T14:44:55.014Z,101173.20
2022-10-07T14:50:02.252Z,101164.96
2022-10-07T14:55:15.087Z,101148.65
2022-10-07T15:00:27.861Z,101140.66
2022-10-07T15:05:34.029Z,101134.11
2022-10-07T15:10:39.012Z,101130.52
2022-10-07T15:15:45.070Z,101120.11
2022-10-07T15:20:55.857Z,101111.91
2022-10-07T15:25:59.008Z,101109.16
2022-10-07T15:31:10.522Z,101103.75
2022-10-07T15:36:14.636Z,101101.60
2022-10-07T15:41:38.772Z,101097.98
2022-10-07T15:46:43.261Z,101092.35
2022-10-07T15:51:47.031Z,101084.29
2022-10-07T15:56:50.198Z,101082.25
2022-10-07T16:01:54.386Z,101073.13
2022-10-07T16:06:58.389Z,101066.33
2022-10-07T16:12:01.679Z,101059.36
2022-10-07T16:17:05.257Z,101052.91
2022-10-07T16:22:08.352Z,101056.45
2022-10-07T16:27:11.520Z,101057.00
2022-10-07T16:32:15.117Z,101048.35
2022-10-07T16:37:18.299Z,101042.30
2022-10-07T16:42:21.918Z,101042.25
2022-10-07T16:47:25.445Z,101043.68
2022-10-07T16:52:28.633Z,101045.44
2022-10-07T16:57:31.748Z,101044.32
2022-10-07T17:02:36.029Z,101039.92
2022-10-07T17:07:39.381Z,101035.44
2022-10-07T17:12:43.676Z,101038.91
2022-10-07T17:17:48.809Z,101033.22
2022-10-07T17:22:52.097Z,101025.26
2022-10-07T17:27:55.306Z,101024.48
2022-10-07T17:32:58.433Z,101017.67
2022-10-07T17:38:06.731Z,101013.69
2022-10-07T17:43:09.820Z,101013.59
2022-10-07T17:48:14.173Z,101015.58
2022-10-07T17:53:17.384Z,101008.25
2022-10-07T17:58:20.637Z,101001.17
2022-10-07T18:03:25.012Z,100997.16
2022-10-07T18:08:28.308Z,100993.81
2022-10-07T18:13:53.613Z,100987.92
2022-10-07T18:18:57.463Z,100980.86
2022-10-07T18:24:01.950Z,100974.70
2022-10-07T18:29:05.121Z,100970.93
2022-10-07T18:34:10.788Z,100963.92
2022-10-07T18:39:14.077Z,100962.48
2022-10-07T18:44:17.300Z,100956.35
2022-10-07T18:49:20.515Z,100954.02
2022-10-07T18:54:24.845Z,100948.84
2022-10-07T18:59:28.054Z,100944.96
2022-10-07T19:04:31.344Z,100934.23
2022-10-07T19:09:34.573Z,100940.23
2022-10-07T19:14:39.051Z,100938.58
2022-10-07T19:19:42.547Z,100934.39
2022-10-07T19:25:05.580Z,100931.55
2022-10-07T19:30:09.492Z,100926.05
2022-10-07T19:35:13.902Z,100923.31
2022-10-07T19:40:17.981Z,100916.03
2022-10-07T19:45:22.780Z,100910.54
2022-10-07T19:50:25.988Z,100905.75
2022-10-07T19:55:34.407Z,100907.96
2022-10-07T20:00:37.597Z,100907.16
2022-10-07T20:05:44.920Z,100904.34
2022-10-07T20:10:48.128Z,100906.02
2022-10-07T20:15:51.454Z,100901.88
2022-10-07T20:21:13.493Z,100895.02
2022-10-07T20:26:24.216Z,100882.95
2022-10-07T20:31:31.954Z,100882.25
2022-10-07T20:36:37.522Z,100877.13
2022-10-07T20:41:59.364Z,100873.55
2022-10-07T20:47:04.219Z,100868.35
2022-10-07T20:52:18.328Z,100861.65
2022-10-07T20:57:24.272Z,100858.73
2022-10-07T21:02:28.800Z,100852.86
2022-10-07T21:07:32.335Z,100849.33
2022-10-07T21:12:35.660Z,100840.89
2022-10-07T21:17:39.583Z,100842.65
2022-10-07T21:22:42.717Z,100839.52
2022-10-07T21:27:45.974Z,100835.36
2022-10-07T21:32:50.428Z,100830.33
2022-10-07T21:37:53.777Z,100824.95
2022-10-07T21:42:57.163Z,100820.84
2022-10-07T21:48:00.313Z,100816.15
2022-10-07T21:53:05.379Z,100810.47
2022-10-07T21:58:08.427Z,100805.80
2022-10-07T22:03:12.648Z,100798.48
2022-10-07T22:08:37.456Z,100791.08
2022-10-07T22:13:55.583Z,100790.32
2022-10-07T22:18:58.632Z,100781.55
2022-10-07T22:24:05.686Z,100770.36
2022-10-07T22:29:10.577Z,100759.52
2022-10-07T22:34:33.967Z,100746.48
2022-10-07T22:39:46.789Z,100737.94
2022-10-07T22:44:51.806Z,100728.69
2022-10-07T22:49:55.972Z,100725.35
2022-10-07T22:54:59.141Z,100724.73
2022-10-07T23:00:07.519Z,100716.55
2022-10-07T23:05:10.805Z,100705.91
2022-10-07T23:10:14.322Z,100701.49
2022-10-07T23:15:21.057Z,100695.83
2022-10-07T23:20:25.873Z,100689.23
2022-10-07T23:25:28.996Z,100681.74
2022-10-07T23:31:05.025Z,100678.80
2022-10-07T23:36:11.603Z,100667.16
2022-10-07T23:41:17.863Z,100664.64
2022-10-07T23:46:22.611Z,100658.33
2022-10-07T23:51:32.553Z,100645.05
2022-10-07T23:56:36.601Z,100645.67
